createdAt,value
2023-03-21T00:00:43.448Z,64.29
2023-03-21T00:03:11.173Z,64.18
2023-03-21T00:05:43.329Z,64.30
2023-03-21T00:08:10.508Z,64.12
2023-03-21T00:10:43.649Z,63.90
2023-03-21T00:13:16.203Z,64.26
2023-03-21T00:16:05.317Z,64.35
2023-03-21T00:18:43.259Z,63.88
2023-03-21T00:24:01.043Z,64.62
2023-03-21T00:26:28.525Z,64.40
2023-03-21T00:28:55.712Z,64.33
2023-03-21T00:31:22.953Z,64.27
2023-03-21T00:33:50.605Z,64.20
2023-03-21T00:36:18.057Z,64.43
2023-03-21T00:38:45.204Z,64.39
2023-03-21T00:41:25.965Z,64.29
2023-03-21T00:43:59.195Z,64.36
2023-03-21T00:46:36.351Z,64.08
2023-03-21T00:49:09.799Z,64.31
2023-03-21T00:51:37.072Z,64.44
2023-03-21T00:54:05.909Z,64.29
2023-03-21T00:56:33.344Z,64.64
2023-03-21T00:59:00.557Z,64.41
2023-03-21T01:01:32.308Z,64.71
2023-03-21T01:04:05.645Z,64.89
2023-03-21T01:06:40.470Z,64.71
2023-03-21T01:09:13.518Z,65.25
2023-03-21T01:11:42.163Z,65.09
2023-03-21T01:14:24.783Z,65.37
2023-03-21T01:16:54.746Z,65.48
2023-03-21T01:19:44.241Z,65.02
2023-03-21T01:22:16.620Z,64.63
2023-03-21T01:24:53.920Z,65.35
2023-03-21T01:27:22.876Z,65.12
2023-03-21T01:29:50.618Z,65.15
2023-03-21T01:32:17.695Z,65.36
2023-03-21T01:34:45.053Z,65.17
2023-03-21T01:37:12.464Z,65.50
2023-03-21T01:39:46.211Z,65.70
2023-03-21T01:42:14.687Z,65.75
2023-03-21T01:44:58.468Z,66.30
2023-03-21T01:47:33.735Z,65.98
2023-03-21T01:50:22.400Z,66.15
2023-03-21T01:53:30.292Z,66.22
2023-03-21T01:56:02.118Z,66.73
2023-03-21T01:58:46.047Z,66.93
2023-03-21T02:01:38.531Z,66.73
2023-03-21T02:04:09.205Z,66.76
2023-03-21T02:07:01.026Z,66.95
2023-03-21T02:09:38.061Z,66.73
2023-03-21T02:12:12.213Z,66.93
2023-03-21T02:14:40.202Z,67.18
2023-03-21T02:17:49.635Z,67.31
2023-03-21T02:20:45.042Z,67.15
2023-03-21T02:24:01.628Z,67.13
2023-03-21T02:27:01.425Z,66.60
2023-03-21T02:29:42.689Z,66.87
2023-03-21T02:32:36.679Z,66.68
2023-03-21T02:35:37.145Z,66.57
2023-03-21T02:38:18.322Z,66.59
2023-03-21T02:41:19.368Z,66.42
2023-03-21T02:43:59.203Z,66.26
2023-03-21T02:46:44.202Z,66.45
2023-03-21T02:49:35.228Z,66.05
2023-03-21T02:52:15.711Z,66.41
2023-03-21T02:54:51.674Z,66.18
2023-03-21T02:57:27.030Z,66.27
2023-03-21T03:00:10.572Z,66.25
2023-03-21T03:02:43.785Z,66.40
2023-03-21T03:05:21.612Z,66.38
2023-03-21T03:08:10.559Z,66.48
2023-03-21T03:11:06.117Z,66.40
2023-03-21T03:13:39.401Z,65.89
2023-03-21T03:16:36.848Z,65.92
2023-03-21T03:19:10.761Z,65.72
2023-03-21T03:22:07.424Z,66.39
2023-03-21T03:24:59.552Z,66.46
2023-03-21T03:27:35.459Z,66.71
2023-03-21T03:30:05.910Z,66.41
2023-03-21T03:32:48.875Z,66.04
2023-03-21T03:35:20.396Z,66.26
2023-03-21T03:37:53.853Z,66.79
2023-03-21T03:40:28.437Z,66.35
2023-03-21T03:43:15.150Z,66.48
2023-03-21T03:45:50.089Z,66.45
2023-03-21T03:48:28.441Z,66.41
2023-03-21T03:51:04.172Z,66.38
2023-03-21T03:54:27.678Z,66.20
2023-03-21T03:56:56.198Z,66.11
2023-03-21T03:59:25.211Z,66.11
2023-03-21T04:02:07.829Z,66.31
2023-03-21T04:04:35.393Z,66.40
2023-03-21T04:07:03.778Z,66.74
2023-03-21T04:09:43.240Z,66.99
2023-03-21T04:12:14.205Z,66.66
2023-03-21T04:14:46.959Z,66.81
2023-03-21T04:17:17.478Z,66.94
2023-03-21T04:19:46.423Z,67.07
2023-03-21T04:22:14.179Z,66.80
2023-03-21T04:24:44.221Z,66.53
2023-03-21T04:27:11.488Z,66.83
2023-03-21T04:29:41.407Z,66.66
2023-03-21T04:32:54.112Z,66.92
2023-03-21T04:35:21.530Z,67.30
2023-03-21T04:37:49.861Z,67.00
2023-03-21T04:40:19.064Z,66.85
2023-03-21T04:42:47.980Z,67.43
2023-03-21T04:45:16.485Z,67.20
2023-03-21T04:47:45.885Z,67.15
2023-03-21T04:50:14.068Z,66.90
2023-03-21T04:52:41.207Z,67.39
2023-03-21T04:55:10.455Z,67.61
2023-03-21T04:57:39.836Z,67.78
2023-03-21T05:00:13.477Z,67.98
2023-03-21T05:02:41.405Z,68.25
2023-03-21T05:05:11.425Z,68.52
2023-03-21T05:07:40.202Z,68.83
2023-03-21T05:10:10.546Z,69.08
2023-03-21T05:12:39.777Z,69.11
2023-03-21T05:15:07.697Z,69.36
2023-03-21T05:17:36.736Z,68.84
2023-03-21T05:20:05.089Z,69.20
2023-03-21T05:22:40.605Z,69.55
2023-03-21T05:25:12.705Z,69.04
2023-03-21T05:28:09.231Z,69.02
2023-03-21T05:30:37.008Z,69.49
2023-03-21T05:33:07.422Z,69.37
2023-03-21T05:35:35.563Z,69.08
2023-03-21T05:38:06.187Z,68.97
2023-03-21T05:40:50.992Z,68.74
2023-03-21T05:43:19.004Z,68.59
2023-03-21T05:45:48.467Z,68.13
2023-03-21T05:48:17.480Z,68.20
2023-03-21T05:51:14.311Z,67.95
2023-03-21T05:53:42.203Z,67.88
2023-03-21T05:56:10.062Z,67.62
2023-03-21T05:58:56.815Z,67.76
2023-03-21T06:01:24.967Z,67.41
2023-03-21T06:04:06.329Z,66.70
2023-03-21T06:06:34.234Z,66.31
2023-03-21T06:09:02.734Z,65.85
2023-03-21T06:11:34.845Z,65.59
2023-03-21T06:14:31.495Z,65.01
2023-03-21T06:17:22.459Z,64.74
2023-03-21T06:19:55.885Z,64.39
2023-03-21T06:22:33.532Z,63.83
2023-03-21T06:25:02.477Z,63.98
2023-03-21T06:27:31.166Z,63.60
2023-03-21T06:29:59.848Z,63.76
2023-03-21T06:32:31.011Z,63.22
2023-03-21T06:35:07.568Z,63.33
2023-03-21T06:37:36.042Z,62.36
2023-03-21T06:40:05.232Z,62.59
2023-03-21T06:42:32.794Z,61.82
2023-03-21T06:45:07.707Z,61.89
2023-03-21T06:47:34.996Z,61.59
2023-03-21T06:50:07.166Z,61.50
2023-03-21T06:52:40.778Z,60.90
2023-03-21T06:55:09.726Z,60.66
2023-03-21T06:57:37.295Z,60.38
2023-03-21T07:00:05.695Z,60.50
2023-03-21T07:02:33.953Z,59.82
2023-03-21T07:05:12.481Z,59.88
2023-03-21T07:07:40.487Z,59.56
2023-03-21T07:10:09.770Z,59.34
2023-03-21T07:12:56.164Z,59.38
2023-03-21T07:15:42.703Z,58.80
2023-03-21T07:18:10.830Z,58.80
2023-03-21T07:20:38.291Z,58.21
2023-03-21T07:23:06.181Z,58.02
2023-03-21T07:25:33.730Z,57.95
2023-03-21T07:28:01.294Z,59.02
2023-03-21T07:30:28.553Z,58.32
2023-03-21T07:32:55.756Z,57.76
2023-03-21T07:35:24.129Z,57.37
2023-03-21T07:37:51.810Z,56.51
2023-03-21T07:40:19.420Z,56.57
2023-03-21T07:42:50.225Z,56.21
2023-03-21T07:45:28.641Z,56.49
2023-03-21T07:47:55.964Z,56.47
2023-03-21T07:50:24.240Z,55.96
2023-03-21T07:52:51.712Z,55.72
2023-03-21T07:55:19.016Z,55.54
2023-03-21T07:57:46.707Z,55.70
2023-03-21T08:00:23.107Z,55.15
2023-03-21T08:02:58.714Z,54.44
2023-03-21T08:05:33.914Z,54.64
2023-03-21T08:08:01.387Z,54.82
2023-03-21T08:10:28.933Z,55.58
2023-03-21T08:12:56.231Z,54.99
2023-03-21T08:15:23.539Z,55.00
2023-03-21T08:17:50.759Z,56.23
2023-03-21T08:20:21.438Z,56.44
2023-03-21T08:22:49.765Z,53.99
2023-03-21T08:25:19.598Z,55.18
2023-03-21T08:27:48.501Z,54.55
2023-03-21T08:30:22.073Z,54.58
2023-03-21T08:32:49.843Z,53.07
2023-03-21T08:35:18.837Z,53.24
2023-03-21T08:37:46.180Z,53.06
2023-03-21T08:40:16.354Z,51.46
2023-03-21T08:42:44.840Z,51.31
2023-03-21T08:45:13.322Z,51.29
2023-03-21T08:47:40.945Z,52.58
2023-03-21T08:50:12.239Z,51.18
2023-03-21T08:52:39.472Z,51.56
2023-03-21T08:55:07.786Z,50.32
2023-03-21T08:57:35.171Z,52.44
2023-03-21T09:00:02.563Z,52.47
2023-03-21T09:02:31.726Z,51.89
2023-03-21T09:04:59.259Z,52.10
2023-03-21T09:07:26.759Z,50.65
2023-03-21T09:10:15.086Z,48.81
2023-03-21T09:12:41.641Z,48.23
2023-03-21T09:15:12.196Z,47.59
2023-03-21T09:17:42.668Z,48.41
2023-03-21T09:20:19.108Z,48.19
2023-03-21T09:22:52.155Z,48.02
2023-03-21T09:25:21.171Z,47.73
2023-03-21T09:27:49.478Z,47.51
2023-03-21T09:30:18.639Z,48.14
2023-03-21T09:32:49.540Z,47.54
2023-03-21T09:35:19.256Z,48.45
2023-03-21T09:37:48.408Z,48.60
2023-03-21T09:40:33.861Z,47.15
2023-03-21T09:43:33.541Z,47.40
2023-03-21T09:46:32.212Z,46.61
2023-03-21T09:49:08.931Z,47.76
2023-03-21T09:51:41.454Z,45.55
2023-03-21T09:54:30.796Z,44.97
2023-03-21T09:57:04.881Z,44.94
2023-03-21T09:59:41.331Z,45.03
2023-03-21T10:02:21.263Z,46.40
2023-03-21T10:04:49.562Z,47.07
2023-03-21T10:07:19.075Z,48.28
2023-03-21T10:09:48.568Z,45.90
2023-03-21T10:12:21.621Z,45.71
2023-03-21T10:14:57.084Z,46.50
2023-03-21T10:17:41.098Z,44.83
2023-03-21T10:20:17.473Z,45.09
2023-03-21T10:22:47.204Z,47.33
2023-03-21T10:25:19.589Z,47.39
2023-03-21T10:27:52.345Z,47.45
2023-03-21T10:30:27.718Z,45.72
2023-03-21T10:32:59.703Z,45.46
2023-03-21T10:35:27.312Z,45.25
2023-03-21T10:37:54.528Z,45.00
2023-03-21T10:40:21.772Z,43.27
2023-03-21T10:42:49.144Z,44.50
2023-03-21T10:45:20.862Z,43.15
2023-03-21T10:47:50.333Z,42.65
2023-03-21T10:50:26.928Z,43.09
2023-03-21T10:53:00.748Z,43.65
2023-03-21T10:55:32.318Z,44.48
2023-03-21T10:58:11.209Z,43.27
2023-03-21T11:00:45.316Z,43.74
2023-03-21T11:03:23.931Z,43.28
2023-03-21T11:05:57.562Z,42.76
2023-03-21T11:08:24.914Z,42.87
2023-03-21T11:11:00.224Z,40.55
2023-03-21T11:13:34.680Z,41.70
2023-03-21T11:16:09.725Z,42.66
2023-03-21T11:18:45.664Z,42.28
2023-03-21T11:21:14.978Z,41.97
2023-03-21T11:23:48.722Z,42.40
2023-03-21T11:26:26.217Z,41.28
2023-03-21T11:28:54.274Z,41.72
2023-03-21T11:31:25.351Z,41.13
2023-03-21T11:34:00.674Z,39.30
2023-03-21T11:36:39.102Z,37.54
2023-03-21T11:39:09.632Z,39.24
2023-03-21T11:41:41.624Z,39.15
2023-03-21T11:44:36.726Z,38.92
2023-03-21T11:47:03.835Z,39.99
2023-03-21T11:49:32.047Z,38.58
2023-03-21T11:52:17.984Z,37.60
2023-03-21T11:55:18.520Z,38.44
2023-03-21T11:57:51.888Z,37.51
2023-03-21T12:00:49.691Z,39.21
2023-03-21T12:03:41.519Z,39.84
2023-03-21T12:06:30.829Z,39.91
2023-03-21T12:09:22.102Z,39.74
2023-03-21T12:12:02.432Z,39.66
2023-03-21T12:14:44.978Z,39.76
2023-03-21T12:17:39.663Z,39.13
2023-03-21T12:20:12.193Z,38.61
2023-03-21T12:23:04.138Z,38.04
2023-03-21T12:25:37.473Z,39.20
2023-03-21T12:28:32.624Z,39.85
2023-03-21T12:31:27.381Z,40.15
2023-03-21T12:34:00.443Z,41.06
2023-03-21T12:36:46.904Z,40.80
2023-03-21T12:39:20.097Z,41.57
2023-03-21T12:42:02.513Z,41.87
2023-03-21T12:44:34.159Z,41.31
2023-03-21T12:47:32.857Z,42.12
2023-03-21T12:50:13.966Z,42.03
2023-03-21T12:52:50.296Z,41.50
2023-03-21T12:55:20.874Z,41.66
2023-03-21T12:57:57.534Z,42.14
2023-03-21T13:00:43.889Z,42.27
2023-03-21T13:03:20.929Z,41.88
2023-03-21T13:05:58.396Z,42.66
2023-03-21T13:08:39.842Z,42.81
2023-03-21T13:11:08.454Z,42.38
2023-03-21T13:13:54.179Z,42.24
2023-03-21T13:16:30.121Z,42.26
2023-03-21T13:19:16.570Z,42.97
2023-03-21T13:22:07.969Z,43.19
2023-03-21T13:24:49.560Z,42.99
2023-03-21T13:27:32.933Z,43.08
2023-03-21T13:30:18.325Z,42.58
2023-03-21T13:32:48.641Z,43.10
2023-03-21T13:35:21.279Z,43.05
2023-03-21T13:38:17.501Z,43.47
2023-03-21T13:40:52.246Z,44.02
2023-03-21T13:43:45.973Z,43.80
2023-03-21T13:46:15.955Z,44.17
2023-03-21T13:49:00.148Z,44.29
2023-03-21T13:51:36.619Z,44.37
2023-03-21T13:54:16.394Z,44.75
2023-03-21T13:56:52.602Z,45.07
2023-03-21T13:59:32.886Z,45.07
2023-03-21T14:02:19.646Z,44.85
2023-03-21T14:05:04.183Z,44.72
2023-03-21T14:07:41.640Z,43.14
2023-03-21T14:10:20.656Z,43.46
2023-03-21T14:12:49.357Z,43.86
2023-03-21T14:15:23.696Z,43.32
2023-03-21T14:17:55.404Z,42.72
2023-03-21T14:20:26.934Z,43.10
2023-03-21T14:22:55.206Z,43.59
2023-03-21T14:25:29.170Z,43.75
2023-03-21T14:28:02.064Z,44.66
2023-03-21T14:30:34.134Z,45.24
2023-03-21T14:33:12.946Z,45.74
2023-03-21T14:35:42.632Z,45.99
2023-03-21T14:38:23.795Z,45.98
2023-03-21T14:40:55.041Z,46.40
2023-03-21T14:43:23.833Z,46.73
2023-03-21T14:45:54.752Z,47.35
2023-03-21T14:48:30.593Z,47.85
2023-03-21T14:51:04.332Z,48.41
2023-03-21T14:53:40.866Z,49.03
2023-03-21T14:56:15.765Z,49.66
2023-03-21T14:58:45.778Z,49.69
2023-03-21T15:01:17.758Z,50.10
2023-03-21T15:03:46.504Z,50.41
2023-03-21T15:06:14.440Z,50.44
2023-03-21T15:08:55.908Z,51.22
2023-03-21T15:11:30.614Z,51.38
2023-03-21T15:14:00.123Z,50.33
2023-03-21T15:16:29.023Z,51.15
2023-03-21T15:18:57.200Z,51.33
2023-03-21T15:21:30.520Z,51.08
2023-03-21T15:24:13.584Z,51.14
2023-03-21T15:26:45.535Z,51.00
2023-03-21T15:29:14.573Z,51.19
2023-03-21T15:31:42.281Z,50.24
2023-03-21T15:34:22.207Z,50.34
2023-03-21T15:36:54.746Z,50.36
2023-03-21T15:39:23.885Z,50.62
2023-03-21T15:42:20.332Z,51.19
2023-03-21T15:44:52.027Z,50.87
2023-03-21T15:47:47.303Z,51.26
2023-03-21T15:50:22.379Z,51.33
2023-03-21T15:52:52.350Z,51.27
2023-03-21T15:55:39.485Z,51.02
2023-03-21T15:58:16.326Z,50.89
2023-03-21T16:00:54.395Z,51.48
2023-03-21T16:03:33.292Z,51.17
2023-03-21T16:06:17.389Z,51.36
2023-03-21T16:09:04.017Z,50.88
2023-03-21T16:11:43.312Z,50.89
2023-03-21T16:14:10.888Z,51.20
2023-03-21T16:16:38.458Z,51.82
2023-03-21T16:19:07.415Z,52.47
2023-03-21T16:21:39.409Z,52.31
2023-03-21T16:24:10.361Z,51.79
2023-03-21T16:26:46.208Z,51.71
2023-03-21T16:29:16.151Z,52.24
2023-03-21T16:31:44.467Z,52.24
2023-03-21T16:34:12.785Z,53.28
2023-03-21T16:36:41.837Z,52.83
2023-03-21T16:39:27.557Z,53.02
2023-03-21T16:41:54.819Z,53.79
2023-03-21T16:44:22.282Z,54.63
2023-03-21T16:46:49.693Z,54.44
2023-03-21T16:49:27.709Z,54.78
2023-03-21T16:51:57.117Z,54.42
2023-03-21T16:54:24.366Z,54.42
2023-03-21T16:56:56.173Z,54.29
2023-03-21T16:59:23.510Z,53.99
2023-03-21T17:01:50.767Z,53.89
2023-03-21T17:04:19.424Z,54.07
2023-03-21T17:06:52.381Z,54.88
2023-03-21T17:09:26.540Z,54.67
2023-03-21T17:11:53.795Z,54.47
2023-03-21T17:14:22.541Z,54.35
2023-03-21T17:16:49.776Z,54.66
2023-03-21T17:19:26.501Z,54.35
2023-03-21T17:21:55.628Z,54.45
2023-03-21T17:24:23.932Z,54.63
2023-03-21T17:26:51.322Z,55.46
2023-03-21T17:29:18.903Z,55.37
2023-03-21T17:31:48.377Z,55.48
2023-03-21T17:34:16.389Z,55.52
2023-03-21T17:36:46.359Z,55.68
2023-03-21T17:39:20.194Z,56.73
2023-03-21T17:41:47.799Z,56.73
2023-03-21T17:44:15.524Z,56.73
2023-03-21T17:46:42.750Z,56.79
2023-03-21T17:49:13.959Z,56.82
2023-03-21T17:51:41.798Z,57.10
2023-03-21T17:54:11.656Z,56.86
2023-03-21T17:56:41.896Z,56.97
2023-03-21T17:59:13.767Z,56.91
2023-03-21T18:01:41.740Z,56.94
2023-03-21T18:04:09.132Z,57.57
2023-03-21T18:06:37.546Z,57.84
2023-03-21T18:09:12.041Z,57.49
2023-03-21T18:11:43.556Z,57.76
2023-03-21T18:14:17.584Z,58.60
2023-03-21T18:16:47.072Z,58.46
2023-03-21T18:19:14.972Z,58.59
2023-03-21T18:21:45.267Z,58.57
2023-03-21T18:24:14.287Z,58.31
2023-03-21T18:26:42.152Z,58.40
2023-03-21T18:32:07.984Z,58.43
2023-03-21T18:34:38.993Z,58.60
2023-03-21T18:37:08.437Z,59.01
2023-03-21T18:39:38.105Z,59.18
2023-03-21T18:42:06.369Z,59.16
2023-03-21T18:44:39.218Z,59.21
2023-03-21T18:47:07.729Z,59.93
2023-03-21T18:50:10.678Z,59.81
2023-03-21T18:52:23.816Z,59.85
2023-03-21T18:54:51.007Z,60.10
2023-03-21T19:00:13.333Z,60.24
2023-03-21T19:02:46.736Z,60.43
2023-03-21T19:05:16.282Z,60.41
2023-03-21T19:07:43.640Z,60.17
2023-03-21T19:10:20.001Z,60.23
2023-03-21T19:12:49.620Z,60.41
2023-03-21T19:15:19.925Z,60.24
2023-03-21T19:20:36.574Z,60.80
2023-03-21T19:23:05.234Z,60.48
2023-03-21T19:25:32.446Z,60.25
2023-03-21T19:27:59.859Z,60.47
2023-03-21T19:30:27.919Z,60.65
2023-03-21T19:32:55.478Z,60.53
2023-03-21T19:35:23.474Z,60.50
2023-03-21T19:37:50.599Z,60.56
2023-03-21T19:40:19.955Z,60.68
2023-03-21T19:42:47.404Z,60.81
2023-03-21T19:45:14.591Z,60.69
2023-03-21T19:47:42.057Z,61.19
2023-03-21T19:52:57.817Z,60.71
2023-03-21T19:55:25.869Z,60.74
2023-03-21T19:57:53.726Z,60.62
2023-03-21T20:00:21.794Z,60.98
2023-03-21T20:02:49.374Z,60.80
2023-03-21T20:05:25.489Z,61.48
2023-03-21T20:07:57.440Z,60.99
2023-03-21T20:10:28.336Z,61.23
2023-03-21T20:12:56.323Z,61.37
2023-03-21T20:15:26.702Z,61.61
2023-03-21T20:17:56.028Z,62.04
2023-03-21T20:20:24.084Z,61.86
2023-03-21T20:23:11.348Z,62.08
2023-03-21T20:25:43.534Z,62.63
2023-03-21T20:28:25.097Z,62.20
2023-03-21T20:31:00.708Z,62.57
2023-03-21T20:33:29.541Z,62.53
2023-03-21T20:36:32.896Z,62.25
2023-03-21T20:38:50.457Z,62.38
2023-03-21T20:41:20.957Z,62.46
2023-03-21T20:46:37.617Z,63.00
2023-03-21T20:49:07.026Z,62.51
2023-03-21T20:54:21.636Z,63.16
2023-03-21T20:56:49.054Z,63.12
2023-03-21T20:59:25.585Z,62.98
2023-03-21T21:01:55.438Z,62.81
2023-03-21T21:04:25.600Z,62.66
2023-03-21T21:07:02.041Z,62.74
2023-03-21T21:09:29.464Z,62.55
2023-03-21T21:12:12.344Z,62.50
2023-03-21T21:14:40.184Z,63.10
2023-03-21T21:19:55.610Z,63.42
2023-03-21T21:22:23.056Z,62.96
2023-03-21T21:24:50.507Z,63.29
2023-03-21T21:27:17.632Z,63.48
2023-03-21T21:29:46.780Z,63.34
2023-03-21T21:32:16.982Z,63.13
2023-03-21T21:34:44.532Z,63.19
2023-03-21T21:37:12.018Z,63.12
2023-03-21T21:39:40.272Z,63.39
2023-03-21T21:42:07.796Z,63.15
2023-03-21T21:44:35.022Z,63.50
2023-03-21T21:47:04.331Z,62.98
2023-03-21T21:49:31.579Z,63.36
2023-03-21T21:51:59.949Z,63.23
2023-03-21T21:54:30.913Z,63.62
2023-03-21T21:56:58.218Z,63.61
2023-03-21T21:59:25.709Z,63.41
2023-03-21T22:01:52.937Z,63.62
2023-03-21T22:04:25.223Z,63.52
2023-03-21T22:06:52.422Z,63.85
2023-03-21T22:09:19.570Z,64.09
2023-03-21T22:11:47.263Z,64.47
2023-03-21T22:14:14.470Z,65.04
2023-03-21T22:16:42.414Z,65.00
2023-03-21T22:19:10.085Z,64.98
2023-03-21T22:21:37.210Z,64.91
2023-03-21T22:24:04.707Z,65.25
2023-03-21T22:26:33.757Z,65.28
2023-03-21T22:29:01.828Z,65.71
2023-03-21T22:31:29.157Z,65.32
2023-03-21T22:33:56.589Z,65.39
2023-03-21T22:36:23.973Z,65.24
2023-03-21T22:38:51.906Z,65.33
2023-03-21T22:41:19.020Z,65.83
2023-03-21T22:43:46.323Z,65.76
2023-03-21T22:46:13.462Z,65.83
2023-03-21T22:48:41.612Z,65.88
2023-03-21T22:51:09.066Z,65.71
2023-03-21T22:53:36.533Z,65.79
2023-03-21T22:56:03.896Z,66.34
2023-03-21T22:58:31.046Z,66.69
2023-03-21T23:01:02.116Z,67.51
2023-03-21T23:03:29.406Z,66.61
2023-03-21T23:06:01.702Z,66.38
2023-03-21T23:08:29.396Z,66.07
2023-03-21T23:10:56.646Z,66.10
2023-03-21T23:13:23.939Z,65.91
2023-03-21T23:15:51.671Z,66.21
2023-03-21T23:18:18.955Z,65.86
2023-03-21T23:20:50.065Z,66.42
2023-03-21T23:23:17.464Z,66.62
2023-03-21T23:25:45.426Z,66.81
2023-03-21T23:28:12.999Z,66.70
2023-03-21T23:30:40.677Z,67.01
2023-03-21T23:33:08.146Z,67.29
2023-03-21T23:35:38.528Z,66.93
2023-03-21T23:38:08.433Z,66.69
2023-03-21T23:40:39.395Z,67.50
2023-03-21T23:43:07.020Z,67.22
2023-03-21T23:45:34.286Z,66.71
2023-03-21T23:48:01.637Z,67.34
2023-03-21T23:50:28.826Z,67.18
2023-03-21T23:52:55.965Z,67.23
2023-03-21T23:55:23.348Z,67.30
2023-03-21T23:57:58.881Z,67.19
